Time;durP1;ratioP1;P1;durP2;ratioP2;P2;SDS_P1;SDS_P2;PMS_P1;PMS_P2;Temp;Humidity;BMP_temperature;BMP_pressure;BME280_temperature;BME280_humidity;BME280_pressure;Samples;Min_cycle;Max_cycle;Signal;HPM_P1;HPM_P2
2022/01/30 00:01:21;;;;;;;26.52;4.72;;;;;;;5.88;78.38;102639.94;5046715;28;20024;-74
2022/01/30 00:03:46;;;;;;;27.50;5.07;;;;;;;5.87;78.63;102641.69;5046074;28;20452;-74
2022/01/30 00:06:12;;;;;;;30.83;4.93;;;;;;;5.83;78.55;102647.03;5049251;28;20108;-74
2022/01/30 00:08:37;;;;;;;26.90;5.20;;;;;;;5.79;78.57;102655.84;5049751;28;20051;-74
2022/01/30 00:11:11;;;;;;;30.67;5.90;;;;;;;5.80;79.05;102668.00;5047771;28;20029;-73
2022/01/30 00:13:37;;;;;;;27.48;4.28;;;;;;;5.77;78.20;102673.31;5050172;28;20029;-74
2022/01/30 00:16:06;;;;;;;25.35;4.88;;;;;;;5.74;78.50;102668.16;5049789;28;20033;-74
2022/01/30 00:23:32;;;;;;;32.33;6.32;;;;;;;5.68;78.91;102671.78;5030324;28;20029;-73
2022/01/30 00:25:59;;;;;;;32.25;4.78;;;;;;;5.64;78.83;102671.00;5029238;28;20060;-73
2022/01/30 00:28:26;;;;;;;33.05;5.68;;;;;;;5.64;78.78;102673.63;5030119;28;20068;-74
2022/01/30 00:30:52;;;;;;;24.75;5.13;;;;;;;5.61;78.79;102678.91;5043327;28;20034;-74
2022/01/30 00:33:18;;;;;;;31.67;5.75;;;;;;;5.56;78.63;102678.13;5029991;28;20108;-74
2022/01/30 00:35:43;;;;;;;25.83;5.65;;;;;;;5.53;78.82;102682.56;5030568;28;20119;-73
2022/01/30 00:38:15;;;;;;;37.00;7.07;;;;;;;5.49;78.93;102684.41;5044047;28;20066;-73
2022/01/30 00:40:44;;;;;;;30.17;5.72;;;;;;;5.48;78.75;102690.50;5048049;28;20020;-73
2022/01/30 00:43:09;;;;;;;27.13;5.20;;;;;;;5.45;79.03;102681.91;5047643;28;20281;-73
2022/01/30 00:45:35;;;;;;;34.63;5.80;;;;;;;5.46;78.97;102681.00;5048616;28;20029;-73
2022/01/30 00:48:01;;;;;;;26.42;5.25;;;;;;;5.44;79.26;102680.19;5048428;28;20108;-74
2022/01/30 00:50:27;;;;;;;30.00;5.13;;;;;;;5.42;78.65;102681.97;5049341;28;20025;-73
2022/01/30 00:52:55;;;;;;;28.08;4.57;;;;;;;5.39;78.93;102682.91;5045191;28;22958;-74
2022/01/30 00:55:22;;;;;;;32.97;5.45;;;;;;;5.36;79.31;102690.81;5045803;28;20029;-74
2022/01/30 00:57:48;;;;;;;31.42;5.05;;;;;;;5.36;79.08;102690.81;5047442;28;20112;-73
2022/01/30 01:00:15;;;;;;;23.85;4.72;;;;;;;5.33;79.48;102689.13;5047352;28;20457;-73
2022/01/30 01:02:41;;;;;;;24.58;5.53;;;;;;;5.31;79.49;102690.06;5047071;28;20170;-75
2022/01/30 01:05:07;;;;;;;27.67;5.20;;;;;;;5.30;79.71;102688.34;5048980;28;20108;-74
2022/01/30 01:07:33;;;;;;;23.35;4.97;;;;;;;5.29;79.27;102699.66;5048156;28;20028;-74
2022/01/30 01:10:07;;;;;;;26.25;5.25;;;;;;;5.27;79.74;102702.31;5048036;28;20032;-74
2022/01/30 01:23:41;;;;;;;34.58;5.80;;;;;;;5.23;80.09;102712.84;5027007;28;20080;-74
2022/01/30 01:26:07;;;;;;;35.13;5.47;;;;;;;5.19;80.09;102705.94;5026583;28;20402;-74
2022/01/30 01:28:32;;;;;;;27.85;5.22;;;;;;;5.18;79.97;102715.53;5028608;28;20040;-74
2022/01/30 01:30:58;;;;;;;28.05;5.20;;;;;;;5.17;80.56;102708.59;5047117;28;20884;-74
2022/01/30 01:33:29;;;;;;;36.70;5.28;;;;;;;5.15;80.65;102709.53;5049114;28;20072;-74
2022/01/30 01:35:55;;;;;;;34.47;5.22;;;;;;;5.14;80.28;102711.28;5047509;28;20044;-74
2022/01/30 01:38:21;;;;;;;25.75;5.10;;;;;;;5.11;80.50;102716.56;5049218;28;20484;-75
2022/01/30 01:40:54;;;;;;;33.30;5.05;;;;;;;5.12;80.39;102720.03;5047431;28;20061;-74
2022/01/30 01:43:22;;;;;;;29.85;5.30;;;;;;;5.10;80.64;102717.44;5052232;28;20017;-74
2022/01/30 01:45:51;;;;;;;35.03;5.22;;;;;;;5.06;79.86;102721.03;5045503;28;20476;-73
2022/01/30 01:48:16;;;;;;;37.00;5.43;;;;;;;5.03;80.34;102721.09;5050831;28;20914;-74
2022/01/30 01:50:51;;;;;;;31.73;5.45;;;;;;;5.02;80.22;102720.22;5052751;28;20104;-74
2022/01/30 01:53:19;;;;;;;33.88;5.10;;;;;;;4.99;80.38;102724.66;5050865;28;20419;-74
2022/01/30 01:55:45;;;;;;;35.40;5.65;;;;;;;4.97;81.04;102729.91;5051481;28;20021;-74
2022/01/30 01:58:11;;;;;;;31.30;4.72;;;;;;;4.91;80.50;102722.19;5052376;28;20033;-74
2022/01/30 02:00:37;;;;;;;35.08;4.90;;;;;;;4.92;80.49;102729.13;5052239;28;20079;-74
2022/01/30 02:03:04;;;;;;;39.05;5.45;;;;;;;4.86;80.76;102729.25;5044866;28;20033;-74
2022/01/30 02:05:32;;;;;;;30.83;4.97;;;;;;;4.86;80.95;102724.06;5052193;28;20017;-74
2022/01/30 02:08:28;;;;;;;26.77;4.63;;;;;;;4.81;81.18;102725.91;5050957;28;20108;-76
2022/01/30 02:11:06;;;;;;;34.28;5.05;;;;;;;4.80;81.31;102721.53;5050635;28;20107;-76
2022/01/30 02:27:01;;;;;;;37.80;5.60;;;;;;;4.69;82.09;102690.47;5051885;28;20033;-76
2022/01/30 02:29:27;;;;;;;38.95;4.88;;;;;;;4.68;82.10;102693.09;5051011;28;20017;-76
2022/01/30 02:31:56;;;;;;;38.45;5.70;;;;;;;4.65;82.19;102696.63;5050505;28;20114;-76
2022/01/30 02:34:29;;;;;;;36.45;5.38;;;;;;;4.64;82.74;102707.09;5052085;28;20473;-76
2022/01/30 02:36:55;;;;;;;;;;;;;;;4.78;82.34;102718.09;5042711;28;20025;-76
2022/01/30 02:39:21;;;;;;;32.00;5.00;;;;;;;4.66;82.03;102711.38;5050762;28;19912;-76
2022/01/30 02:41:49;;;;;;;26.92;4.93;;;;;;;4.56;82.46;102704.63;5051524;28;20048;-76
2022/01/30 02:46:53;;;;;;;34.33;5.43;;;;;;;4.49;82.34;102697.81;5051173;28;20086;-75
2022/01/30 02:51:50;;;;;;;38.05;5.43;;;;;;;4.46;82.49;102708.31;5044902;28;20033;-74
2022/01/30 02:54:15;;;;;;;30.33;4.75;;;;;;;4.43;82.20;102712.72;5031302;28;20037;-75
2022/01/30 02:56:41;;;;;;;29.80;4.72;;;;;;;4.37;82.39;102703.25;5037067;28;20058;-74
2022/01/30 02:59:07;;;;;;;28.13;4.55;;;;;;;4.33;82.57;102710.25;5050490;28;20021;-76
2022/01/30 03:01:32;;;;;;;24.80;4.85;;;;;;;4.28;82.65;102711.25;5046407;28;20048;-76
2022/01/30 03:03:58;;;;;;;29.17;4.88;;;;;;;4.25;82.63;102730.38;5049206;28;20124;-76
2022/01/30 03:06:24;;;;;;;28.50;4.50;;;;;;;4.23;83.08;102726.94;5048736;28;20411;-76
2022/01/30 03:08:49;;;;;;;19.58;4.38;;;;;;;4.23;82.97;102734.78;5044115;28;20396;-75
2022/01/30 03:11:18;;;;;;;29.90;5.18;;;;;;;4.21;82.99;102741.75;5050453;28;20032;-75
2022/01/30 03:13:44;;;;;;;34.30;5.28;;;;;;;4.18;83.36;102741.81;5049033;28;20037;-76
2022/01/30 03:16:09;;;;;;;33.97;5.40;;;;;;;4.09;83.46;102734.16;5041247;28;20166;-76
2022/01/30 03:18:36;;;;;;;34.88;5.60;;;;;;;4.10;83.30;102738.47;5028601;28;20464;-76
2022/01/30 03:21:01;;;;;;;27.00;4.35;;;;;;;4.08;83.26;102742.84;5048740;28;20104;-76
2022/01/30 03:23:27;;;;;;;28.42;4.75;;;;;;;4.13;84.11;102750.59;5050239;28;20167;-76
2022/01/30 03:25:57;;;;;;;33.40;5.03;;;;;;;4.13;83.99;102755.78;5046760;28;20053;-76
2022/01/30 03:28:22;;;;;;;30.27;4.80;;;;;;;4.12;84.05;102764.50;5049057;28;20116;-76
2022/01/30 03:30:52;;;;;;;27.65;5.05;;;;;;;4.09;84.56;102752.38;5047630;28;20060;-76
2022/01/30 03:33:18;;;;;;;34.42;4.78;;;;;;;4.07;84.62;102747.19;5050049;28;20476;-76
2022/01/30 03:35:44;;;;;;;24.90;4.25;;;;;;;4.08;85.36;102753.28;5049132;28;20040;-75
2022/01/30 03:38:09;;;;;;;35.65;5.68;;;;;;;4.12;85.09;102759.28;5049123;28;20043;-74
2022/01/30 03:40:34;;;;;;;29.88;4.65;;;;;;;4.11;85.29;102776.66;5049252;28;20106;-74
2022/01/30 03:42:59;;;;;;;33.85;5.18;;;;;;;4.09;85.92;102773.22;5042935;28;20022;-74
2022/01/30 03:45:25;;;;;;;33.10;5.05;;;;;;;4.14;85.52;102784.44;5049636;28;20033;-75
2022/01/30 03:47:55;;;;;;;23.73;5.20;;;;;;;4.15;86.02;102791.34;5048223;28;20818;-75
2022/01/30 03:50:21;;;;;;;23.08;4.28;;;;;;;4.17;85.56;102791.34;5041564;28;20082;-74
2022/01/30 03:52:48;;;;;;;24.38;4.82;;;;;;;4.17;86.06;102793.94;5049954;28;20447;-74
2022/01/30 03:55:14;;;;;;;33.33;5.43;;;;;;;4.15;85.82;102793.97;5049229;28;20040;-75
2022/01/30 03:57:39;;;;;;;35.72;5.25;;;;;;;4.15;85.65;102786.16;5049724;28;20021;-75
2022/01/30 04:00:06;;;;;;;31.27;4.93;;;;;;;4.19;85.50;102786.94;5040767;28;20045;-75
2022/01/30 04:02:32;;;;;;;38.00;4.85;;;;;;;4.22;85.70;102799.94;5049603;28;20017;-75
2022/01/30 04:04:57;;;;;;;30.02;5.50;;;;;;;4.22;85.92;102792.97;5048900;28;20032;-75
2022/01/30 04:07:23;;;;;;;34.63;5.65;;;;;;;4.28;85.27;102803.28;5049850;28;20032;-75
2022/01/30 04:09:49;;;;;;;26.73;4.95;;;;;;;4.23;85.82;102794.69;5048412;28;20021;-75
2022/01/30 04:12:18;;;;;;;28.15;4.50;;;;;;;4.25;85.77;102799.88;5048294;28;20029;-74
2022/01/30 04:14:44;;;;;;;25.83;4.40;;;;;;;4.29;85.80;102799.78;5048494;28;20033;-75
2022/01/30 04:17:09;;;;;;;33.40;5.45;;;;;;;4.33;85.72;102817.09;5055647;28;20107;-75
2022/01/30 04:19:36;;;;;;;36.17;5.10;;;;;;;4.34;85.61;102813.59;5049135;28;20040;-75
2022/01/30 04:22:02;;;;;;;32.10;4.60;;;;;;;4.31;85.27;102812.81;5048781;28;20024;-75
2022/01/30 04:24:27;;;;;;;32.95;5.25;;;;;;;4.38;85.42;102820.47;5049014;28;20024;-75
2022/01/30 04:26:52;;;;;;;31.58;4.65;;;;;;;4.38;85.06;102815.28;5048646;28;20389;-76
2022/01/30 04:29:18;;;;;;;30.00;5.50;;;;;;;4.35;85.27;102804.91;5048748;28;20511;-75
2022/01/30 04:31:43;;;;;;;30.65;4.53;;;;;;;4.43;84.93;102824.78;5048157;28;20059;-74
2022/01/30 04:34:12;;;;;;;35.58;4.65;;;;;;;4.38;84.67;102812.66;5040712;28;20068;-75
2022/01/30 04:36:54;;;;;;;28.70;4.80;;;;;;;4.43;84.94;102820.44;5047309;28;20473;-75
2022/01/30 04:53:04;;;;;;;27.95;4.00;;;;;;;4.51;84.59;102838.53;5040857;28;20094;-75
2022/01/30 04:58:14;;;;;;;35.33;5.30;;;;;;;4.54;83.64;102841.97;5047308;28;20039;-75
2022/01/30 05:00:57;;;;;;;26.35;4.45;;;;;;;4.50;84.11;102836.84;5044131;28;20032;-75
2022/01/30 05:03:38;;;;;;;27.85;4.63;;;;;;;4.51;83.73;102841.16;5045018;28;20021;-74
2022/01/30 05:06:08;;;;;;;26.33;4.72;;;;;;;4.49;83.66;102838.56;5038539;28;20491;-75
2022/01/30 05:08:34;;;;;;;26.45;4.38;;;;;;;4.45;83.39;102839.50;5044711;28;20029;-74
2022/01/30 05:11:02;;;;;;;31.17;5.13;;;;;;;4.46;83.12;102846.44;5043333;28;20499;-75
2022/01/30 05:13:31;;;;;;;35.58;5.32;;;;;;;4.51;83.16;102856.78;5045707;28;20381;-75
2022/01/30 05:15:56;;;;;;;33.63;4.82;;;;;;;4.48;83.00;102856.84;5048190;28;20144;-74
2022/01/30 05:18:24;;;;;;;26.92;4.22;;;;;;;4.45;83.43;102868.19;5057226;28;20154;-75
2022/01/30 05:20:50;;;;;;;29.00;3.92;;;;;;;4.43;83.08;102866.50;5051093;28;20028;-74
2022/01/30 05:23:19;;;;;;;30.80;4.47;;;;;;;4.42;83.28;102872.59;5052282;28;20400;-75
2022/01/30 05:25:49;;;;;;;25.40;4.03;;;;;;;4.38;83.48;102870.00;5052528;28;20392;-75
2022/01/30 05:28:16;;;;;;;27.20;4.65;;;;;;;4.37;83.28;102864.81;5045793;28;20366;-74
2022/01/30 05:30:43;;;;;;;28.38;4.35;;;;;;;4.34;83.40;102868.31;5052852;28;20032;-75
2022/01/30 05:33:10;;;;;;;23.10;4.20;;;;;;;4.30;83.05;102866.66;5049810;28;20124;-75
2022/01/30 05:35:36;;;;;;;26.30;4.38;;;;;;;4.29;83.12;102861.47;5052840;28;20321;-75
2022/01/30 05:38:03;;;;;;;25.40;4.50;;;;;;;4.27;83.28;102863.25;5051696;28;20025;-74
2022/01/30 05:40:28;;;;;;;26.67;4.35;;;;;;;4.25;82.88;102873.69;5050592;28;20055;-74
2022/01/30 05:42:54;;;;;;;25.77;4.03;;;;;;;4.23;82.86;102867.63;5045820;28;20104;-75
2022/01/30 05:45:39;;;;;;;28.83;4.30;;;;;;;4.20;83.18;102867.69;5050311;28;20042;-75
2022/01/30 05:48:11;;;;;;;32.13;4.45;;;;;;;4.19;83.13;102884.19;5049757;28;20033;-75
2022/01/30 05:50:37;;;;;;;27.07;4.10;;;;;;;4.16;83.09;102881.66;5044545;28;20478;-75
2022/01/30 05:53:03;;;;;;;27.77;4.53;;;;;;;4.15;82.96;102885.13;5051515;28;20314;-74
2022/01/30 05:55:31;;;;;;;23.60;4.20;;;;;;;4.11;82.41;102880.84;5049144;28;20483;-74
2022/01/30 05:57:57;;;;;;;24.42;4.10;;;;;;;4.06;82.63;102872.25;5051205;28;20021;-75
2022/01/30 06:00:22;;;;;;;29.92;4.25;;;;;;;4.02;82.49;102873.19;5042821;28;20555;-74
2022/01/30 06:02:47;;;;;;;16.88;3.28;;;;;;;4.06;82.18;102875.72;5048677;28;20012;-75
2022/01/30 06:05:15;;;;;;;31.98;3.78;;;;;;;4.02;82.91;102884.47;5051991;28;20029;-74
2022/01/30 06:07:51;;;;;;;20.27;3.67;;;;;;;4.02;82.37;102886.19;5051475;28;20035;-74
2022/01/30 06:10:17;;;;;;;22.42;3.65;;;;;;;3.94;82.64;102875.88;5050728;28;20392;-75
2022/01/30 06:12:42;;;;;;;31.58;4.25;;;;;;;4.00;82.66;102893.16;5050776;28;20025;-75
2022/01/30 06:15:08;;;;;;;25.42;3.80;;;;;;;3.93;82.09;102888.91;5051173;28;20033;-74
2022/01/30 06:17:34;;;;;;;32.45;4.30;;;;;;;3.91;82.65;102885.47;5047583;28;20094;-74
2022/01/30 06:19:59;;;;;;;23.17;4.30;;;;;;;3.88;82.74;102883.75;5050226;28;20111;-74
2022/01/30 06:22:25;;;;;;;21.33;4.00;;;;;;;3.87;82.68;102878.56;5050525;28;20093;-75
2022/01/30 06:24:50;;;;;;;25.27;3.50;;;;;;;3.91;82.76;102888.06;5049510;28;20037;-74
2022/01/30 06:27:16;;;;;;;21.98;3.83;;;;;;;3.94;82.82;102888.03;5050303;28;20021;-75
2022/01/30 06:29:42;;;;;;;27.55;3.47;;;;;;;3.89;82.41;102869.00;5049349;28;20036;-74
2022/01/30 06:32:07;;;;;;;20.85;3.75;;;;;;;3.92;82.64;102882.84;5050715;28;20420;-75
2022/01/30 06:34:33;;;;;;;22.80;3.50;;;;;;;3.98;82.56;102892.31;5043934;28;20029;-75
2022/01/30 06:36:58;;;;;;;33.53;4.05;;;;;;;3.98;82.25;102881.88;5050035;28;20480;-74
2022/01/30 06:39:23;;;;;;;23.17;4.05;;;;;;;4.01;81.76;102887.94;5051262;28;20021;-74
2022/01/30 06:41:49;;;;;;;25.25;4.07;;;;;;;4.07;81.38;102892.19;5049616;28;20044;-74
2022/01/30 06:44:14;;;;;;;22.77;3.13;;;;;;;4.08;81.28;102894.78;5050827;28;20025;-74
2022/01/30 06:46:40;;;;;;;24.08;3.60;;;;;;;4.09;81.79;102895.66;5051355;28;20048;-74
2022/01/30 06:49:05;;;;;;;20.85;3.33;;;;;;;4.13;81.96;102904.28;5049730;28;20055;-74
2022/01/30 06:51:31;;;;;;;22.35;3.10;;;;;;;4.14;81.62;102900.78;5049583;28;20048;-74
2022/01/30 06:53:56;;;;;;;23.08;3.47;;;;;;;4.14;82.57;102914.69;5050607;28;20029;-77
2022/01/30 06:56:21;;;;;;;21.98;3.65;;;;;;;4.14;82.76;102914.69;5050814;28;20392;-77
2022/01/30 06:58:47;;;;;;;27.98;3.67;;;;;;;4.14;82.36;102914.69;5049291;28;20033;-74
2022/01/30 07:01:12;;;;;;;20.40;3.60;;;;;;;4.15;82.96;102926.81;5050532;28;20489;-74
2022/01/30 07:03:38;;;;;;;25.30;3.83;;;;;;;4.14;82.67;102919.88;5048848;28;20025;-74
2022/01/30 07:06:03;;;;;;;29.58;3.70;;;;;;;4.12;83.07;102919.03;5048297;28;20068;-74
2022/01/30 07:08:29;;;;;;;23.75;3.85;;;;;;;4.12;83.27;102921.66;5046107;28;20473;-74
2022/01/30 07:10:54;;;;;;;26.42;4.03;;;;;;;4.08;82.29;102927.78;5044056;28;20081;-74
2022/01/30 07:13:20;;;;;;;20.60;3.63;;;;;;;4.05;82.80;102926.09;5049591;28;20020;-74
2022/01/30 07:15:48;;;;;;;23.80;3.20;;;;;;;4.03;82.57;102927.84;5049940;28;20055;-74
2022/01/30 07:18:13;;;;;;;26.52;3.95;;;;;;;4.04;82.57;102933.94;5053051;28;20017;-74
2022/01/30 07:20:39;;;;;;;25.60;4.00;;;;;;;4.02;82.80;102940.91;5049177;28;20488;-74
2022/01/30 07:23:05;;;;;;;23.80;4.40;;;;;;;4.01;82.79;102939.16;5048756;28;20035;-74
2022/01/30 07:25:30;;;;;;;25.60;3.53;;;;;;;4.00;82.33;102940.03;5045092;28;20032;-74
2022/01/30 07:27:56;;;;;;;28.25;4.07;;;;;;;3.98;82.34;102947.84;5045794;28;20227;-74
2022/01/30 07:30:21;;;;;;;24.73;3.58;;;;;;;3.97;82.40;102942.66;5045920;28;20029;-74
2022/01/30 07:32:47;;;;;;;30.10;3.97;;;;;;;3.96;82.26;102944.41;5048042;28;20569;-74
2022/01/30 07:35:13;;;;;;;18.88;3.72;;;;;;;3.95;82.22;102944.44;5050185;28;20448;-74
2022/01/30 07:37:41;;;;;;;23.17;3.60;;;;;;;3.92;82.06;102954.88;5050109;28;20052;-74
2022/01/30 07:40:07;;;;;;;31.10;4.43;;;;;;;3.91;82.13;102954.03;5047084;28;21020;-75
2022/01/30 07:42:33;;;;;;;24.95;3.90;;;;;;;3.89;82.20;102960.13;5049885;28;20028;-76
2022/01/30 07:44:59;;;;;;;25.92;3.78;;;;;;;3.91;82.27;102979.22;5048512;28;20478;-76
2022/01/30 07:47:24;;;;;;;19.65;3.30;;;;;;;3.87;82.42;102978.38;5048858;28;20017;-76
2022/01/30 07:49:52;;;;;;;25.55;3.80;;;;;;;3.86;82.43;102986.22;5048856;28;20036;-76
2022/01/30 07:52:21;;;;;;;23.88;3.70;;;;;;;3.84;82.81;102977.56;5047898;28;20033;-76
2022/01/30 07:54:48;;;;;;;22.27;3.15;;;;;;;3.84;82.50;102974.97;5044243;28;20029;-72
2022/01/30 07:57:14;;;;;;;21.30;3.83;;;;;;;3.80;82.71;102974.13;5049437;28;20039;-74
2022/01/30 07:59:40;;;;;;;24.70;3.65;;;;;;;3.80;83.02;102970.66;5049444;28;20107;-74
2022/01/30 08:02:05;;;;;;;24.60;3.70;;;;;;;3.78;82.69;102976.75;5049143;28;20112;-74
2022/01/30 08:04:31;;;;;;;23.25;3.75;;;;;;;3.77;81.86;102971.56;5047765;28;20654;-75
2022/01/30 08:06:56;;;;;;;22.10;3.40;;;;;;;3.77;83.14;102975.03;5046396;28;20043;-74
2022/01/30 08:09:21;;;;;;;18.23;3.50;;;;;;;3.77;82.44;102977.63;5044424;28;20029;-74
2022/01/30 08:11:47;;;;;;;27.13;3.83;;;;;;;3.75;82.40;102968.13;5046700;28;20449;-74
2022/01/30 08:14:12;;;;;;;23.65;3.72;;;;;;;3.77;82.64;102975.03;5048332;28;20025;-74
2022/01/30 08:16:39;;;;;;;25.13;3.80;;;;;;;3.77;83.39;102987.19;5049957;28;20029;-74
2022/01/30 08:19:04;;;;;;;19.92;3.25;;;;;;;3.76;83.01;102982.88;5046326;28;20090;-74
2022/01/30 08:21:30;;;;;;;29.48;4.50;;;;;;;3.77;82.30;102992.41;5048639;28;20029;-74
2022/01/30 08:23:56;;;;;;;24.27;4.03;;;;;;;3.77;82.48;102992.41;5047678;28;20053;-74
2022/01/30 08:26:22;;;;;;;25.20;3.65;;;;;;;3.80;82.01;102996.72;5048737;28;20069;-74
2022/01/30 08:28:47;;;;;;;26.40;3.85;;;;;;;3.80;82.11;102996.72;5047972;28;20530;-74
2022/01/30 08:31:12;;;;;;;24.15;3.63;;;;;;;3.80;81.96;102994.09;5053066;28;20485;-74
2022/01/30 08:33:41;;;;;;;20.30;3.28;;;;;;;3.82;81.96;102995.81;5047230;28;20029;-74
2022/01/30 08:36:07;;;;;;;21.00;3.72;;;;;;;3.83;81.78;103007.94;5051929;28;20278;-76
2022/01/30 08:38:32;;;;;;;21.25;4.10;;;;;;;3.84;82.36;103001.84;5048644;28;20124;-74
2022/01/30 08:40:57;;;;;;;22.52;3.60;;;;;;;3.87;82.09;102995.75;5046682;28;20756;-75
2022/01/30 08:43:23;;;;;;;22.70;4.00;;;;;;;3.89;81.96;102996.59;5046194;28;20035;-74
2022/01/30 08:45:50;;;;;;;26.60;4.30;;;;;;;3.93;81.79;102998.28;5047590;28;20021;-74
2022/01/30 08:48:19;;;;;;;27.83;4.28;;;;;;;3.97;81.83;102994.75;5048803;28;20048;-74
2022/01/30 08:50:45;;;;;;;22.63;3.88;;;;;;;3.99;82.01;102999.06;5046565;28;20029;-74
2022/01/30 08:53:11;;;;;;;24.90;3.78;;;;;;;4.00;82.19;102994.72;5047234;28;20120;-74
2022/01/30 08:55:38;;;;;;;27.67;4.43;;;;;;;4.04;82.31;102991.22;5048479;28;20057;-74
2022/01/30 08:58:07;;;;;;;31.20;4.45;;;;;;;4.12;81.67;103004.16;5047706;28;20480;-74
2022/01/30 09:00:35;;;;;;;26.52;4.45;;;;;;;4.14;81.38;102998.03;5048852;28;20029;-74
2022/01/30 09:03:03;;;;;;;31.30;4.25;;;;;;;4.20;81.67;102995.34;5046354;28;20047;-77
2022/01/30 09:05:30;;;;;;;25.65;3.88;;;;;;;4.22;81.36;102993.59;5046638;28;20112;-76
2022/01/30 09:07:56;;;;;;;25.48;3.88;;;;;;;4.27;81.15;103002.19;5046801;28;20021;-77
2022/01/30 09:10:21;;;;;;;28.13;3.90;;;;;;;4.31;80.82;103006.47;5048133;28;20067;-77
2022/01/30 09:12:47;;;;;;;21.58;4.05;;;;;;;4.36;80.70;103009.88;5046125;28;20041;-77
2022/01/30 09:15:15;;;;;;;27.73;4.50;;;;;;;4.39;80.21;103011.59;5048225;28;20024;-77
2022/01/30 09:17:40;;;;;;;30.25;4.20;;;;;;;4.43;80.20;103020.25;5057839;28;20374;-74
2022/01/30 09:20:06;;;;;;;22.33;3.75;;;;;;;4.45;80.24;103023.69;5046624;28;20291;-74
2022/01/30 09:22:32;;;;;;;30.90;3.90;;;;;;;4.52;79.53;103040.97;5048584;28;20029;-74
2022/01/30 09:24:57;;;;;;;24.08;4.30;;;;;;;4.56;78.80;103032.22;5047967;28;20029;-76
2022/01/30 09:27:23;;;;;;;30.48;4.38;;;;;;;4.60;79.73;103033.91;5048580;28;20021;-76
2022/01/30 09:29:48;;;;;;;25.30;4.13;;;;;;;4.66;79.62;103023.38;5049225;28;20507;-76
2022/01/30 09:32:14;;;;;;;26.25;4.85;;;;;;;4.73;79.18;103025.88;5051365;28;20098;-76
2022/01/30 09:34:39;;;;;;;28.73;4.43;;;;;;;4.78;79.30;103028.41;5047843;28;20021;-77
2022/01/30 09:37:06;;;;;;;30.50;4.97;;;;;;;4.86;79.20;103031.81;5066830;28;20766;-76
2022/01/30 09:39:31;;;;;;;32.63;5.30;;;;;;;4.91;79.15;103042.16;5066794;28;20032;-76
2022/01/30 09:41:57;;;;;;;29.45;4.80;;;;;;;4.94;78.89;103042.97;5066244;28;20024;-76
2022/01/30 09:44:23;;;;;;;27.88;4.50;;;;;;;5.01;77.71;103049.81;5061820;28;20150;-76
2022/01/30 09:46:50;;;;;;;25.50;4.93;;;;;;;5.04;77.77;103049.75;5047532;28;20029;-77
2022/01/30 09:49:20;;;;;;;25.65;4.47;;;;;;;5.11;76.72;103049.66;5052801;28;20384;-76
2022/01/30 09:51:49;;;;;;;29.10;4.70;;;;;;;5.16;76.78;103050.44;5047691;28;20047;-76
2022/01/30 09:54:17;;;;;;;32.92;4.35;;;;;;;5.20;76.71;103057.34;5061915;28;20109;-75
2022/01/30 09:56:43;;;;;;;29.30;5.03;;;;;;;5.23;76.02;103047.75;5047099;28;20029;-76
2022/01/30 09:59:08;;;;;;;35.35;4.63;;;;;;;5.28;75.12;103050.28;5045862;28;20083;-75
2022/01/30 10:01:36;;;;;;;26.75;4.55;;;;;;;5.32;75.09;103059.78;5041399;28;20033;-75
2022/01/30 10:04:03;;;;;;;26.70;4.38;;;;;;;5.36;75.16;103056.22;5045328;28;20027;-76
2022/01/30 10:06:34;;;;;;;28.92;4.35;;;;;;;5.38;75.45;103059.66;5051849;28;20033;-76
2022/01/30 10:09:09;;;;;;;22.25;4.28;;;;;;;5.43;74.48;103067.41;5051256;28;20115;-76
2022/01/30 10:12:00;;;;;;;27.27;4.53;;;;;;;5.48;75.42;103074.28;5044385;28;20024;-74
2022/01/30 10:14:25;;;;;;;26.10;4.50;;;;;;;5.52;75.31;103075.94;5050113;28;20032;-75
2022/01/30 10:16:51;;;;;;;32.53;5.30;;;;;;;5.55;74.75;103075.88;5051659;28;20108;-77
2022/01/30 10:19:20;;;;;;;27.65;4.20;;;;;;;5.61;75.63;103074.94;5042559;28;20026;-74
2022/01/30 10:21:48;;;;;;;31.77;4.63;;;;;;;5.62;74.91;103080.16;5047886;28;20135;-77
2022/01/30 10:24:25;;;;;;;34.22;4.55;;;;;;;5.73;74.79;103082.56;5050769;28;20013;-76
2022/01/30 10:26:53;;;;;;;32.40;5.78;;;;;;;5.77;74.86;103078.13;5042925;28;20033;-76
2022/01/30 10:29:23;;;;;;;35.13;4.93;;;;;;;5.81;74.81;103078.06;5050576;28;20060;-76
2022/01/30 10:32:06;;;;;;;27.02;4.60;;;;;;;5.88;75.28;103082.28;5049491;28;20069;-76
2022/01/30 10:34:32;;;;;;;;;;;;;;;5.95;76.68;103080.44;5029104;28;20040;-76
2022/01/30 10:37:16;;;;;;;30.13;4.35;;;;;;;5.98;74.92;103077.75;5044815;28;19913;-73
2022/01/30 10:40:01;;;;;;;24.20;4.18;;;;;;;6.05;75.74;103071.56;5045101;28;20052;-74
2022/01/30 10:42:44;;;;;;;32.03;5.28;;;;;;;6.11;75.13;103070.56;5046114;28;20032;-74
2022/01/30 10:45:11;;;;;;;27.50;4.57;;;;;;;6.15;73.39;103072.22;5045001;28;20093;-76
2022/01/30 10:47:38;;;;;;;37.25;5.20;;;;;;;6.19;73.34;103079.13;5043967;28;20384;-75
2022/01/30 10:50:16;;;;;;;33.95;5.03;;;;;;;6.21;74.00;103069.50;5041784;28;20032;-75
2022/01/30 10:52:51;;;;;;;31.08;5.38;;;;;;;6.26;73.56;103068.50;5043209;28;20029;-75
2022/01/30 10:55:31;;;;;;;33.53;4.72;;;;;;;6.33;74.08;103065.75;5046535;28;20033;-75
2022/01/30 10:57:59;;;;;;;30.40;4.50;;;;;;;6.32;72.29;103064.03;5039303;28;20021;-76
2022/01/30 11:00:43;;;;;;;31.30;5.00;;;;;;;6.39;72.67;103076.94;5043636;28;20101;-75
2022/01/30 11:03:29;;;;;;;32.05;4.65;;;;;;;6.38;71.86;103071.75;5041339;28;20067;-76
2022/01/30 11:05:59;;;;;;;39.38;5.20;;;;;;;6.43;71.04;103059.47;5040038;28;20040;-76
2022/01/30 11:08:26;;;;;;;32.55;5.40;;;;;;;6.43;71.15;103054.25;5039590;28;20071;-76
2022/01/30 11:11:24;;;;;;;34.15;4.97;;;;;;;6.49;72.19;103056.72;5038546;28;20039;-76
2022/01/30 11:19:19;;;;;;;29.33;4.93;;;;;;;6.49;70.34;103041.03;5039633;28;20091;-76
2022/01/30 11:21:48;;;;;;;30.70;4.43;;;;;;;6.49;69.98;103033.19;5039964;28;20104;-75
2022/01/30 11:24:15;;;;;;;28.27;4.50;;;;;;;6.51;69.49;103039.25;5039207;28;20469;-75
2022/01/30 11:26:43;;;;;;;33.10;5.05;;;;;;;6.57;70.37;103039.97;5038996;28;20103;-75
2022/01/30 11:29:10;;;;;;;28.35;5.28;;;;;;;6.63;70.19;103036.34;5042215;28;20112;-75
2022/01/30 11:31:36;;;;;;;27.08;4.18;;;;;;;6.72;70.53;103033.50;5037736;28;20069;-82
2022/01/30 11:34:01;;;;;;;28.67;4.90;;;;;;;6.73;69.52;103024.78;5038906;28;20037;-82
2022/01/30 11:36:28;;;;;;;32.05;5.38;;;;;;;6.79;69.29;103029.84;5043669;28;20017;-75
2022/01/30 11:38:54;;;;;;;32.28;4.97;;;;;;;6.83;68.62;103031.53;5038095;28;20485;-75
2022/01/30 11:41:20;;;;;;;28.02;4.43;;;;;;;6.82;67.42;103035.06;5040383;28;20495;-74
2022/01/30 11:44:20;;;;;;;26.60;4.20;;;;;;;6.90;69.20;103032.25;5039161;28;20397;-75
2022/01/30 11:46:51;;;;;;;36.88;5.13;;;;;;;6.88;67.27;103019.19;5035711;28;20033;-75
2022/01/30 11:49:17;;;;;;;35.03;4.70;;;;;;;6.89;67.89;103020.06;5038947;28;20412;-75
2022/01/30 11:51:55;;;;;;;28.42;4.85;;;;;;;6.98;68.44;103022.44;5038397;28;20029;-75
2022/01/30 11:54:41;;;;;;;32.63;4.30;;;;;;;7.05;68.23;103025.78;5037566;28;20098;-75
2022/01/30 11:57:18;;;;;;;22.98;4.30;;;;;;;7.12;67.42;103019.50;5035964;28;20386;-74
2022/01/30 11:59:48;;;;;;;26.38;4.40;;;;;;;7.18;66.31;103024.56;5037255;28;20076;-75
2022/01/30 12:02:23;;;;;;;26.15;4.55;;;;;;;7.24;66.71;103016.59;5040447;28;20021;-74
2022/01/30 12:05:01;;;;;;;29.15;4.90;;;;;;;7.34;66.95;103015.44;5036816;28;20470;-75
2022/01/30 12:07:46;;;;;;;24.88;4.40;;;;;;;7.42;67.17;103015.25;5054069;28;20164;-76
2022/01/30 12:10:21;;;;;;;28.33;4.38;;;;;;;7.49;66.51;103022.91;5039010;28;20053;-73
2022/01/30 12:12:47;;;;;;;27.92;4.13;;;;;;;7.51;65.36;103026.34;5039585;28;20032;-74
2022/01/30 12:15:36;;;;;;;28.73;4.15;;;;;;;7.51;65.95;103015.00;5051710;28;20488;-74
2022/01/30 12:18:04;;;;;;;25.92;4.50;;;;;;;7.48;63.77;103015.09;5061306;28;20099;-73
2022/01/30 12:20:33;;;;;;;29.63;4.50;;;;;;;7.49;64.41;103012.41;5048654;28;20389;-73
2022/01/30 12:23:00;;;;;;;24.58;4.60;;;;;;;7.59;65.82;103017.41;5048325;28;20547;-74
2022/01/30 12:25:30;;;;;;;22.77;3.80;;;;;;;7.62;64.30;103006.88;5047495;28;20036;-74
2022/01/30 12:27:58;;;;;;;20.83;4.07;;;;;;;7.70;64.39;103012.75;5046477;28;20028;-73